sensor_id;sensor_type;location;lat;lon;timestamp;temperature;humidity
4828;DHT22;2428;48.732;9.148;2024-01-06T00:02:01;5.50;99.90
4828;DHT22;2428;48.732;9.148;2024-01-06T00:04:27;5.50;99.90
4828;DHT22;2428;48.732;9.148;2024-01-06T00:06:54;5.40;99.90
4828;DHT22;2428;48.732;9.148;2024-01-06T00:09:19;5.50;99.90
4828;DHT22;2428;48.732;9.148;2024-01-06T00:11:51;5.50;99.90
4828;DHT22;2428;48.732;9.148;2024-01-06T00:14:19;5.50;99.90
4828;DHT22;2428;48.732;9.148;2024-01-06T00:16:45;5.50;99.90
4828;DHT22;2428;48.732;9.148;2024-01-06T00:19:11;5.50;99.90
4828;DHT22;2428;48.732;9.148;2024-01-06T00:21:36;5.50;99.90
4828;DHT22;2428;48.732;9.148;2024-01-06T00:24:04;5.50;99.90
4828;DHT22;2428;48.732;9.148;2024-01-06T00:26:30;5.50;99.90
4828;DHT22;2428;48.732;9.148;2024-01-06T00:28:56;5.50;99.90
4828;DHT22;2428;48.732;9.148;2024-01-06T00:31:21;5.50;99.90
4828;DHT22;2428;48.732;9.148;2024-01-06T00:33:47;5.50;99.90
4828;DHT22;2428;48.732;9.148;2024-01-06T00:36:12;5.40;99.90
4828;DHT22;2428;48.732;9.148;2024-01-06T00:38:38;5.40;99.90
4828;DHT22;2428;48.732;9.148;2024-01-06T00:41:07;5.40;99.90
4828;DHT22;2428;48.732;9.148;2024-01-06T00:43:32;5.30;99.90
4828;DHT22;2428;48.732;9.148;2024-01-06T00:45:58;5.30;99.90
4828;DHT22;2428;48.732;9.148;2024-01-06T00:48:23;5.30;99.90
4828;DHT22;2428;48.732;9.148;2024-01-06T00:50:49;5.40;99.90
4828;DHT22;2428;48.732;9.148;2024-01-06T00:53:14;5.40;99.90
4828;DHT22;2428;48.732;9.148;2024-01-06T00:55:40;5.40;99.90
4828;DHT22;2428;48.732;9.148;2024-01-06T00:58:11;5.40;99.90
4828;DHT22;2428;48.732;9.148;2024-01-06T01:00:38;5.40;99.90
4828;DHT22;2428;48.732;9.148;2024-01-06T01:03:04;5.40;99.90
4828;DHT22;2428;48.732;9.148;2024-01-06T01:05:29;5.40;99.90
4828;DHT22;2428;48.732;9.148;2024-01-06T01:07:55;5.40;99.90
4828;DHT22;2428;48.732;9.148;2024-01-06T01:10:26;5.40;99.90
4828;DHT22;2428;48.732;9.148;2024-01-06T01:12:51;5.40;99.90
4828;DHT22;2428;48.732;9.148;2024-01-06T01:15:17;5.40;99.90
4828;DHT22;2428;48.732;9.148;2024-01-06T01:17:44;5.40;99.90
4828;DHT22;2428;48.732;9.148;2024-01-06T01:20:09;5.40;99.90
4828;DHT22;2428;48.732;9.148;2024-01-06T01:22:55;5.40;99.90
4828;DHT22;2428;48.732;9.148;2024-01-06T01:25:21;5.40;99.90
4828;DHT22;2428;48.732;9.148;2024-01-06T01:27:46;5.40;99.90
4828;DHT22;2428;48.732;9.148;2024-01-06T01:30:12;5.50;99.90
4828;DHT22;2428;48.732;9.148;2024-01-06T01:32:39;5.50;99.90
4828;DHT22;2428;48.732;9.148;2024-01-06T01:35:10;5.50;99.90
4828;DHT22;2428;48.732;9.148;2024-01-06T01:37:35;5.50;99.90
4828;DHT22;2428;48.732;9.148;2024-01-06T01:40:01;5.50;99.90
4828;DHT22;2428;48.732;9.148;2024-01-06T01:42:27;5.50;99.90
4828;DHT22;2428;48.732;9.148;2024-01-06T01:44:52;5.40;99.90
4828;DHT22;2428;48.732;9.148;2024-01-06T01:47:18;5.40;99.90
4828;DHT22;2428;48.732;9.148;2024-01-06T01:49:46;5.40;99.90
4828;DHT22;2428;48.732;9.148;2024-01-06T01:52:13;5.30;99.90
4828;DHT22;2428;48.732;9.148;2024-01-06T01:54:40;5.40;99.90
4828;DHT22;2428;48.732;9.148;2024-01-06T01:57:07;5.40;99.90
4828;DHT22;2428;48.732;9.148;2024-01-06T01:59:49;5.40;99.90
4828;DHT22;2428;48.732;9.148;2024-01-06T02:02:15;5.40;99.90
4828;DHT22;2428;48.732;9.148;2024-01-06T02:04:41;5.40;99.90
4828;DHT22;2428;48.732;9.148;2024-01-06T02:07:06;5.40;99.90
4828;DHT22;2428;48.732;9.148;2024-01-06T02:09:32;5.40;99.90
4828;DHT22;2428;48.732;9.148;2024-01-06T02:12:00;5.40;99.90
4828;DHT22;2428;48.732;9.148;2024-01-06T02:14:26;5.40;99.90
4828;DHT22;2428;48.732;9.148;2024-01-06T02:16:52;5.40;99.90
4828;DHT22;2428;48.732;9.148;2024-01-06T02:19:18;5.40;99.90
4828;DHT22;2428;48.732;9.148;2024-01-06T02:21:48;5.40;99.90
4828;DHT22;2428;48.732;9.148;2024-01-06T02:24:19;5.30;99.90
4828;DHT22;2428;48.732;9.148;2024-01-06T02:26:45;5.30;99.90
4828;DHT22;2428;48.732;9.148;2024-01-06T02:29:10;5.40;99.90
4828;DHT22;2428;48.732;9.148;2024-01-06T02:31:36;5.40;99.90
4828;DHT22;2428;48.732;9.148;2024-01-06T02:34:01;5.40;99.90
4828;DHT22;2428;48.732;9.148;2024-01-06T02:36:37;5.40;99.90
4828;DHT22;2428;48.732;9.148;2024-01-06T02:39:06;5.40;99.90
4828;DHT22;2428;48.732;9.148;2024-01-06T02:41:31;5.40;99.90
4828;DHT22;2428;48.732;9.148;2024-01-06T02:43:57;5.40;99.90
4828;DHT22;2428;48.732;9.148;2024-01-06T02:46:23;5.40;99.90
4828;DHT22;2428;48.732;9.148;2024-01-06T02:48:49;5.40;99.90
4828;DHT22;2428;48.732;9.148;2024-01-06T02:51:14;5.40;99.90
4828;DHT22;2428;48.732;9.148;2024-01-06T02:53:40;5.40;99.90
4828;DHT22;2428;48.732;9.148;2024-01-06T02:56:10;5.40;99.90
4828;DHT22;2428;48.732;9.148;2024-01-06T02:58:39;5.30;99.90
4828;DHT22;2428;48.732;9.148;2024-01-06T03:01:05;5.30;99.90
4828;DHT22;2428;48.732;9.148;2024-01-06T03:03:30;5.30;99.90
4828;DHT22;2428;48.732;9.148;2024-01-06T03:05:59;5.20;99.90
4828;DHT22;2428;48.732;9.148;2024-01-06T03:08:25;5.20;99.90
4828;DHT22;2428;48.732;9.148;2024-01-06T03:10:50;5.20;99.90
4828;DHT22;2428;48.732;9.148;2024-01-06T03:13:19;5.20;99.90
4828;DHT22;2428;48.732;9.148;2024-01-06T03:15:47;5.20;99.90
4828;DHT22;2428;48.732;9.148;2024-01-06T03:18:13;5.20;99.90
4828;DHT22;2428;48.732;9.148;2024-01-06T03:20:38;5.20;99.90
4828;DHT22;2428;48.732;9.148;2024-01-06T03:23:04;5.20;99.90
4828;DHT22;2428;48.732;9.148;2024-01-06T03:25:30;5.20;99.90
4828;DHT22;2428;48.732;9.148;2024-01-06T03:27:58;5.10;99.90
4828;DHT22;2428;48.732;9.148;2024-01-06T03:30:24;5.20;99.90
4828;DHT22;2428;48.732;9.148;2024-01-06T03:32:49;5.10;99.90
4828;DHT22;2428;48.732;9.148;2024-01-06T03:35:15;5.10;99.90
4828;DHT22;2428;48.732;9.148;2024-01-06T03:37:40;5.10;99.90
4828;DHT22;2428;48.732;9.148;2024-01-06T03:40:07;5.10;99.90
4828;DHT22;2428;48.732;9.148;2024-01-06T03:42:32;5.10;99.90
4828;DHT22;2428;48.732;9.148;2024-01-06T03:44:58;5.00;99.90
4828;DHT22;2428;48.732;9.148;2024-01-06T03:47:24;5.00;99.90
4828;DHT22;2428;48.732;9.148;2024-01-06T03:49:55;5.00;99.90
4828;DHT22;2428;48.732;9.148;2024-01-06T03:52:20;5.00;99.90
4828;DHT22;2428;48.732;9.148;2024-01-06T03:54:46;5.00;99.90
4828;DHT22;2428;48.732;9.148;2024-01-06T03:57:11;5.00;99.90
4828;DHT22;2428;48.732;9.148;2024-01-06T03:59:37;5.00;99.90
4828;DHT22;2428;48.732;9.148;2024-01-06T04:02:02;5.10;99.90
4828;DHT22;2428;48.732;9.148;2024-01-06T04:04:31;5.00;99.90
4828;DHT22;2428;48.732;9.148;2024-01-06T04:06:59;5.00;99.90
4828;DHT22;2428;48.732;9.148;2024-01-06T04:09:27;5.00;99.90
4828;DHT22;2428;48.732;9.148;2024-01-06T04:11:52;5.00;99.90
4828;DHT22;2428;48.732;9.148;2024-01-06T04:14:18;5.00;99.90
4828;DHT22;2428;48.732;9.148;2024-01-06T04:16:43;5.00;99.90
4828;DHT22;2428;48.732;9.148;2024-01-06T04:19:09;4.90;99.90
4828;DHT22;2428;48.732;9.148;2024-01-06T04:21:36;5.00;99.90
4828;DHT22;2428;48.732;9.148;2024-01-06T04:24:11;4.90;99.90
4828;DHT22;2428;48.732;9.148;2024-01-06T04:26:36;4.90;99.90
4828;DHT22;2428;48.732;9.148;2024-01-06T04:29:05;5.00;99.90
4828;DHT22;2428;48.732;9.148;2024-01-06T04:31:30;5.00;99.90
4828;DHT22;2428;48.732;9.148;2024-01-06T04:33:56;4.90;99.90
4828;DHT22;2428;48.732;9.148;2024-01-06T04:36:24;4.90;99.90
4828;DHT22;2428;48.732;9.148;2024-01-06T04:38:50;4.90;99.90
4828;DHT22;2428;48.732;9.148;2024-01-06T04:41:15;4.90;99.90
4828;DHT22;2428;48.732;9.148;2024-01-06T04:43:44;4.90;99.90
4828;DHT22;2428;48.732;9.148;2024-01-06T04:46:10;4.90;99.90
4828;DHT22;2428;48.732;9.148;2024-01-06T04:48:35;4.90;99.90
4828;DHT22;2428;48.732;9.148;2024-01-06T04:51:01;4.90;99.90
4828;DHT22;2428;48.732;9.148;2024-01-06T04:53:29;4.90;99.90
4828;DHT22;2428;48.732;9.148;2024-01-06T04:55:55;4.90;99.90
4828;DHT22;2428;48.732;9.148;2024-01-06T04:58:20;4.90;99.90
4828;DHT22;2428;48.732;9.148;2024-01-06T05:00:46;4.90;99.90
4828;DHT22;2428;48.732;9.148;2024-01-06T05:03:14;4.90;99.90
4828;DHT22;2428;48.732;9.148;2024-01-06T05:05:43;4.90;99.90
4828;DHT22;2428;48.732;9.148;2024-01-06T05:08:09;4.90;99.90
4828;DHT22;2428;48.732;9.148;2024-01-06T05:10:34;4.90;99.90
4828;DHT22;2428;48.732;9.148;2024-01-06T05:13:00;4.90;99.90
4828;DHT22;2428;48.732;9.148;2024-01-06T05:15:36;4.90;99.90
4828;DHT22;2428;48.732;9.148;2024-01-06T05:18:02;5.00;99.90
4828;DHT22;2428;48.732;9.148;2024-01-06T05:20:27;5.00;99.90
4828;DHT22;2428;48.732;9.148;2024-01-06T05:22:53;5.00;99.90
4828;DHT22;2428;48.732;9.148;2024-01-06T05:25:18;4.90;99.90
4828;DHT22;2428;48.732;9.148;2024-01-06T05:27:53;4.90;99.90
4828;DHT22;2428;48.732;9.148;2024-01-06T05:30:19;5.00;99.90
4828;DHT22;2428;48.732;9.148;2024-01-06T05:32:44;4.90;99.90
4828;DHT22;2428;48.732;9.148;2024-01-06T05:35:10;4.90;99.90
4828;DHT22;2428;48.732;9.148;2024-01-06T05:37:35;5.00;99.90
4828;DHT22;2428;48.732;9.148;2024-01-06T05:40:01;5.00;99.90
4828;DHT22;2428;48.732;9.148;2024-01-06T05:42:29;5.00;99.90
4828;DHT22;2428;48.732;9.148;2024-01-06T05:45:00;5.00;99.90
4828;DHT22;2428;48.732;9.148;2024-01-06T05:47:26;5.00;99.90
4828;DHT22;2428;48.732;9.148;2024-01-06T05:49:51;5.00;99.90
4828;DHT22;2428;48.732;9.148;2024-01-06T05:52:17;5.00;99.90
4828;DHT22;2428;48.732;9.148;2024-01-06T05:54:42;5.00;99.90
4828;DHT22;2428;48.732;9.148;2024-01-06T05:57:08;5.00;99.90
4828;DHT22;2428;48.732;9.148;2024-01-06T05:59:38;5.00;99.90
4828;DHT22;2428;48.732;9.148;2024-01-06T06:02:04;5.00;99.90
4828;DHT22;2428;48.732;9.148;2024-01-06T06:04:29;5.00;99.90
4828;DHT22;2428;48.732;9.148;2024-01-06T06:06:55;5.00;99.90
4828;DHT22;2428;48.732;9.148;2024-01-06T06:09:21;5.00;99.90
4828;DHT22;2428;48.732;9.148;2024-01-06T06:11:50;5.00;99.90
4828;DHT22;2428;48.732;9.148;2024-01-06T06:14:16;5.00;99.90
4828;DHT22;2428;48.732;9.148;2024-01-06T06:16:41;5.00;99.90
4828;DHT22;2428;48.732;9.148;2024-01-06T06:19:07;5.00;99.90
4828;DHT22;2428;48.732;9.148;2024-01-06T06:21:33;5.00;99.90
4828;DHT22;2428;48.732;9.148;2024-01-06T06:23:59;5.00;99.90
4828;DHT22;2428;48.732;9.148;2024-01-06T06:26:25;5.00;99.90
4828;DHT22;2428;48.732;9.148;2024-01-06T06:28:51;5.00;99.90
4828;DHT22;2428;48.732;9.148;2024-01-06T06:31:17;5.00;99.90
4828;DHT22;2428;48.732;9.148;2024-01-06T06:33:42;5.00;99.90
4828;DHT22;2428;48.732;9.148;2024-01-06T06:36:11;5.00;99.90
4828;DHT22;2428;48.732;9.148;2024-01-06T06:38:37;5.00;99.90
4828;DHT22;2428;48.732;9.148;2024-01-06T06:41:02;5.00;99.90
4828;DHT22;2428;48.732;9.148;2024-01-06T06:43:28;5.00;99.90
4828;DHT22;2428;48.732;9.148;2024-01-06T06:45:53;5.00;99.90
4828;DHT22;2428;48.732;9.148;2024-01-06T06:48:21;5.10;99.90
4828;DHT22;2428;48.732;9.148;2024-01-06T06:50:46;5.10;99.90
4828;DHT22;2428;48.732;9.148;2024-01-06T06:53:15;5.10;99.90
4828;DHT22;2428;48.732;9.148;2024-01-06T06:55:40;5.10;99.90
4828;DHT22;2428;48.732;9.148;2024-01-06T06:58:06;5.20;99.90
4828;DHT22;2428;48.732;9.148;2024-01-06T07:00:32;5.10;99.90
4828;DHT22;2428;48.732;9.148;2024-01-06T07:02:58;5.10;99.90
4828;DHT22;2428;48.732;9.148;2024-01-06T07:05:33;5.10;99.90
4828;DHT22;2428;48.732;9.148;2024-01-06T07:08:00;5.10;99.90
4828;DHT22;2428;48.732;9.148;2024-01-06T07:10:26;5.10;99.90
4828;DHT22;2428;48.732;9.148;2024-01-06T07:12:51;5.10;99.90
4828;DHT22;2428;48.732;9.148;2024-01-06T07:15:17;5.10;99.90
4828;DHT22;2428;48.732;9.148;2024-01-06T07:17:43;5.10;99.90
4828;DHT22;2428;48.732;9.148;2024-01-06T07:20:08;5.10;99.90
4828;DHT22;2428;48.732;9.148;2024-01-06T07:22:58;5.10;99.90
4828;DHT22;2428;48.732;9.148;2024-01-06T07:25:23;5.10;99.90
4828;DHT22;2428;48.732;9.148;2024-01-06T07:27:49;5.10;99.90
4828;DHT22;2428;48.732;9.148;2024-01-06T07:30:14;5.20;99.90
4828;DHT22;2428;48.732;9.148;2024-01-06T07:32:40;5.20;99.90
4828;DHT22;2428;48.732;9.148;2024-01-06T07:35:08;5.20;99.90
4828;DHT22;2428;48.732;9.148;2024-01-06T07:37:34;5.10;99.90
4828;DHT22;2428;48.732;9.148;2024-01-06T07:40:00;5.10;99.90
4828;DHT22;2428;48.732;9.148;2024-01-06T07:42:25;5.10;99.90
4828;DHT22;2428;48.732;9.148;2024-01-06T07:44:51;5.00;99.90
4828;DHT22;2428;48.732;9.148;2024-01-06T07:47:16;5.00;99.90
4828;DHT22;2428;48.732;9.148;2024-01-06T07:49:42;5.00;99.90
4828;DHT22;2428;48.732;9.148;2024-01-06T07:52:08;5.00;99.90
4828;DHT22;2428;48.732;9.148;2024-01-06T07:54:33;4.90;99.90
4828;DHT22;2428;48.732;9.148;2024-01-06T07:56:59;4.90;99.90
4828;DHT22;2428;48.732;9.148;2024-01-06T07:59:24;4.90;99.90
4828;DHT22;2428;48.732;9.148;2024-01-06T08:01:50;4.90;99.90
4828;DHT22;2428;48.732;9.148;2024-01-06T08:04:15;4.90;99.90
4828;DHT22;2428;48.732;9.148;2024-01-06T08:06:41;4.90;99.90
4828;DHT22;2428;48.732;9.148;2024-01-06T08:09:07;4.90;99.90
4828;DHT22;2428;48.732;9.148;2024-01-06T08:11:33;5.00;99.90
4828;DHT22;2428;48.732;9.148;2024-01-06T08:13:59;5.00;99.90
4828;DHT22;2428;48.732;9.148;2024-01-06T08:16:24;5.00;99.90
4828;DHT22;2428;48.732;9.148;2024-01-06T08:18:50;5.10;99.90
4828;DHT22;2428;48.732;9.148;2024-01-06T08:21:15;5.00;99.90
4828;DHT22;2428;48.732;9.148;2024-01-06T08:23:41;4.90;99.90
4828;DHT22;2428;48.732;9.148;2024-01-06T08:26:07;4.90;99.90
4828;DHT22;2428;48.732;9.148;2024-01-06T08:28:32;5.00;99.90
4828;DHT22;2428;48.732;9.148;2024-01-06T08:30:58;5.00;99.90
4828;DHT22;2428;48.732;9.148;2024-01-06T08:33:23;5.00;99.90
4828;DHT22;2428;48.732;9.148;2024-01-06T08:35:50;5.10;99.90
4828;DHT22;2428;48.732;9.148;2024-01-06T08:38:15;5.10;99.90
4828;DHT22;2428;48.732;9.148;2024-01-06T08:40:50;5.20;99.90
4828;DHT22;2428;48.732;9.148;2024-01-06T08:43:17;5.20;99.90
4828;DHT22;2428;48.732;9.148;2024-01-06T08:45:42;5.30;99.90
4828;DHT22;2428;48.732;9.148;2024-01-06T08:48:08;5.30;99.90
4828;DHT22;2428;48.732;9.148;2024-01-06T08:50:34;5.20;99.90
4828;DHT22;2428;48.732;9.148;2024-01-06T08:52:59;5.30;99.90
4828;DHT22;2428;48.732;9.148;2024-01-06T08:55:25;5.30;99.90
4828;DHT22;2428;48.732;9.148;2024-01-06T08:57:56;5.30;99.90
4828;DHT22;2428;48.732;9.148;2024-01-06T09:00:22;5.30;99.90
4828;DHT22;2428;48.732;9.148;2024-01-06T09:02:47;5.30;99.90
4828;DHT22;2428;48.732;9.148;2024-01-06T09:05:14;5.30;99.90
4828;DHT22;2428;48.732;9.148;2024-01-06T09:07:39;5.30;99.90
4828;DHT22;2428;48.732;9.148;2024-01-06T09:10:05;5.40;99.90
4828;DHT22;2428;48.732;9.148;2024-01-06T09:12:31;5.40;99.90
4828;DHT22;2428;48.732;9.148;2024-01-06T09:14:59;5.40;99.90
4828;DHT22;2428;48.732;9.148;2024-01-06T09:17:25;5.40;99.90
4828;DHT22;2428;48.732;9.148;2024-01-06T09:19:50;5.30;99.90
4828;DHT22;2428;48.732;9.148;2024-01-06T09:22:17;5.40;99.90
4828;DHT22;2428;48.732;9.148;2024-01-06T09:24:42;5.40;99.90
4828;DHT22;2428;48.732;9.148;2024-01-06T09:27:11;5.30;99.90
4828;DHT22;2428;48.732;9.148;2024-01-06T09:29:42;5.30;99.90
4828;DHT22;2428;48.732;9.148;2024-01-06T09:32:07;5.30;99.90
4828;DHT22;2428;48.732;9.148;2024-01-06T09:34:33;5.30;99.90
4828;DHT22;2428;48.732;9.148;2024-01-06T09:36:59;5.30;99.90
4828;DHT22;2428;48.732;9.148;2024-01-06T09:39:30;5.30;99.90
4828;DHT22;2428;48.732;9.148;2024-01-06T09:41:58;5.30;99.90
4828;DHT22;2428;48.732;9.148;2024-01-06T09:44:24;5.30;99.90
4828;DHT22;2428;48.732;9.148;2024-01-06T09:46:50;5.40;99.90
4828;DHT22;2428;48.732;9.148;2024-01-06T09:49:22;5.50;99.90
4828;DHT22;2428;48.732;9.148;2024-01-06T09:51:58;5.50;99.90
4828;DHT22;2428;48.732;9.148;2024-01-06T09:54:25;5.40;99.90
4828;DHT22;2428;48.732;9.148;2024-01-06T09:56:52;5.40;99.90
4828;DHT22;2428;48.732;9.148;2024-01-06T09:59:22;5.50;99.90
4828;DHT22;2428;48.732;9.148;2024-01-06T10:01:48;5.50;99.90
4828;DHT22;2428;48.732;9.148;2024-01-06T10:04:15;5.50;99.90
4828;DHT22;2428;48.732;9.148;2024-01-06T10:06:41;5.50;99.90
4828;DHT22;2428;48.732;9.148;2024-01-06T10:09:07;5.60;99.90
4828;DHT22;2428;48.732;9.148;2024-01-06T10:11:35;5.60;99.90
4828;DHT22;2428;48.732;9.148;2024-01-06T10:14:03;5.60;99.90
4828;DHT22;2428;48.732;9.148;2024-01-06T10:16:29;5.60;99.90
4828;DHT22;2428;48.732;9.148;2024-01-06T10:18:54;5.50;99.90
4828;DHT22;2428;48.732;9.148;2024-01-06T10:21:25;5.50;99.90
4828;DHT22;2428;48.732;9.148;2024-01-06T10:23:51;5.50;99.90
4828;DHT22;2428;48.732;9.148;2024-01-06T10:26:16;5.50;99.90
4828;DHT22;2428;48.732;9.148;2024-01-06T10:28:43;5.60;99.90
4828;DHT22;2428;48.732;9.148;2024-01-06T10:31:08;5.50;99.90
4828;DHT22;2428;48.732;9.148;2024-01-06T10:33:56;5.50;99.90
4828;DHT22;2428;48.732;9.148;2024-01-06T10:36:23;5.50;99.90
4828;DHT22;2428;48.732;9.148;2024-01-06T10:38:58;5.50;99.90
4828;DHT22;2428;48.732;9.148;2024-01-06T10:41:24;5.50;99.90
4828;DHT22;2428;48.732;9.148;2024-01-06T10:43:51;5.50;99.90
4828;DHT22;2428;48.732;9.148;2024-01-06T10:46:19;5.60;99.90
4828;DHT22;2428;48.732;9.148;2024-01-06T10:48:46;5.70;99.90
4828;DHT22;2428;48.732;9.148;2024-01-06T10:51:12;5.70;99.90
4828;DHT22;2428;48.732;9.148;2024-01-06T10:53:41;5.70;99.90
4828;DHT22;2428;48.732;9.148;2024-01-06T10:56:10;5.80;99.90
4828;DHT22;2428;48.732;9.148;2024-01-06T10:58:36;5.80;99.90
4828;DHT22;2428;48.732;9.148;2024-01-06T11:01:08;5.60;99.90
4828;DHT22;2428;48.732;9.148;2024-01-06T11:03:36;5.60;99.90
4828;DHT22;2428;48.732;9.148;2024-01-06T11:06:04;5.50;99.90
4828;DHT22;2428;48.732;9.148;2024-01-06T11:08:33;5.40;99.90
4828;DHT22;2428;48.732;9.148;2024-01-06T11:11:01;5.40;99.90
4828;DHT22;2428;48.732;9.148;2024-01-06T11:13:27;5.40;99.90
4828;DHT22;2428;48.732;9.148;2024-01-06T11:15:54;5.50;99.90
4828;DHT22;2428;48.732;9.148;2024-01-06T11:18:39;5.50;99.90
4828;DHT22;2428;48.732;9.148;2024-01-06T11:21:18;5.50;99.90
4828;DHT22;2428;48.732;9.148;2024-01-06T11:24:16;5.60;99.90
4828;DHT22;2428;48.732;9.148;2024-01-06T11:27:01;5.70;99.90
4828;DHT22;2428;48.732;9.148;2024-01-06T11:29:30;5.80;99.90
4828;DHT22;2428;48.732;9.148;2024-01-06T11:32:28;5.70;99.90
4828;DHT22;2428;48.732;9.148;2024-01-06T11:34:55;5.80;99.90
4828;DHT22;2428;48.732;9.148;2024-01-06T11:38:01;5.80;99.90
4828;DHT22;2428;48.732;9.148;2024-01-06T11:40:36;5.80;99.90
4828;DHT22;2428;48.732;9.148;2024-01-06T11:43:09;5.90;99.90
4828;DHT22;2428;48.732;9.148;2024-01-06T11:45:37;5.90;99.90
4828;DHT22;2428;48.732;9.148;2024-01-06T11:48:14;5.90;99.90
4828;DHT22;2428;48.732;9.148;2024-01-06T11:50:41;6.00;99.90
4828;DHT22;2428;48.732;9.148;2024-01-06T11:53:07;5.80;99.90
4828;DHT22;2428;48.732;9.148;2024-01-06T11:55:35;5.80;99.90
4828;DHT22;2428;48.732;9.148;2024-01-06T11:58:01;5.90;99.90
4828;DHT22;2428;48.732;9.148;2024-01-06T12:00:31;5.90;99.90
4828;DHT22;2428;48.732;9.148;2024-01-06T12:02:58;5.90;99.90
4828;DHT22;2428;48.732;9.148;2024-01-06T12:05:25;6.00;99.90
4828;DHT22;2428;48.732;9.148;2024-01-06T12:07:56;5.90;99.90
4828;DHT22;2428;48.732;9.148;2024-01-06T12:10:23;5.90;99.90
4828;DHT22;2428;48.732;9.148;2024-01-06T12:13:33;5.80;99.90
4828;DHT22;2428;48.732;9.148;2024-01-06T12:15:59;5.90;99.90
4828;DHT22;2428;48.732;9.148;2024-01-06T12:18:37;5.80;99.90
4828;DHT22;2428;48.732;9.148;2024-01-06T12:21:03;5.80;99.90
4828;DHT22;2428;48.732;9.148;2024-01-06T12:23:29;5.80;99.90
4828;DHT22;2428;48.732;9.148;2024-01-06T12:25:55;5.80;99.90
4828;DHT22;2428;48.732;9.148;2024-01-06T12:28:21;5.80;99.90
4828;DHT22;2428;48.732;9.148;2024-01-06T12:30:47;5.70;99.90
4828;DHT22;2428;48.732;9.148;2024-01-06T12:33:12;5.70;99.90
4828;DHT22;2428;48.732;9.148;2024-01-06T12:35:41;5.70;99.90
4828;DHT22;2428;48.732;9.148;2024-01-06T12:38:10;5.80;99.90
4828;DHT22;2428;48.732;9.148;2024-01-06T12:40:36;5.70;99.90
4828;DHT22;2428;48.732;9.148;2024-01-06T12:43:04;5.70;99.90
4828;DHT22;2428;48.732;9.148;2024-01-06T12:45:29;5.70;99.90
4828;DHT22;2428;48.732;9.148;2024-01-06T12:47:55;5.70;99.90
4828;DHT22;2428;48.732;9.148;2024-01-06T12:50:20;5.70;99.90
4828;DHT22;2428;48.732;9.148;2024-01-06T12:52:46;5.70;99.90
4828;DHT22;2428;48.732;9.148;2024-01-06T12:55:11;5.60;99.90
4828;DHT22;2428;48.732;9.148;2024-01-06T12:57:37;5.60;99.90
4828;DHT22;2428;48.732;9.148;2024-01-06T13:00:03;5.60;99.90
4828;DHT22;2428;48.732;9.148;2024-01-06T13:02:34;5.60;99.90
4828;DHT22;2428;48.732;9.148;2024-01-06T13:04:59;5.60;99.90
4828;DHT22;2428;48.732;9.148;2024-01-06T13:07:25;5.50;99.90
4828;DHT22;2428;48.732;9.148;2024-01-06T13:09:51;5.50;99.90
4828;DHT22;2428;48.732;9.148;2024-01-06T13:12:17;5.50;99.90
4828;DHT22;2428;48.732;9.148;2024-01-06T13:14:52;5.50;99.90
4828;DHT22;2428;48.732;9.148;2024-01-06T13:17:21;5.40;99.90
4828;DHT22;2428;48.732;9.148;2024-01-06T13:19:47;5.40;99.90
4828;DHT22;2428;48.732;9.148;2024-01-06T13:22:12;5.30;99.90
4828;DHT22;2428;48.732;9.148;2024-01-06T13:24:40;5.50;99.90
4828;DHT22;2428;48.732;9.148;2024-01-06T13:27:06;5.30;99.90
4828;DHT22;2428;48.732;9.148;2024-01-06T13:29:32;5.30;99.90
4828;DHT22;2428;48.732;9.148;2024-01-06T13:32:06;5.30;99.90
4828;DHT22;2428;48.732;9.148;2024-01-06T13:34:32;5.40;99.90
4828;DHT22;2428;48.732;9.148;2024-01-06T13:36:57;5.40;99.90
4828;DHT22;2428;48.732;9.148;2024-01-06T13:39:23;5.40;99.90
4828;DHT22;2428;48.732;9.148;2024-01-06T13:41:49;5.30;99.90
4828;DHT22;2428;48.732;9.148;2024-01-06T13:44:20;5.40;99.90
4828;DHT22;2428;48.732;9.148;2024-01-06T13:46:48;5.40;99.90
4828;DHT22;2428;48.732;9.148;2024-01-06T13:49:16;5.40;99.90
4828;DHT22;2428;48.732;9.148;2024-01-06T13:51:44;5.30;99.90
4828;DHT22;2428;48.732;9.148;2024-01-06T13:54:16;5.20;99.90
4828;DHT22;2428;48.732;9.148;2024-01-06T13:56:41;5.20;99.90
4828;DHT22;2428;48.732;9.148;2024-01-06T13:59:07;5.20;99.90
4828;DHT22;2428;48.732;9.148;2024-01-06T14:01:33;5.20;99.90
4828;DHT22;2428;48.732;9.148;2024-01-06T14:04:02;5.30;99.90
4828;DHT22;2428;48.732;9.148;2024-01-06T14:06:31;5.30;99.90
4828;DHT22;2428;48.732;9.148;2024-01-06T14:08:57;5.30;99.90
4828;DHT22;2428;48.732;9.148;2024-01-06T14:11:23;5.30;99.90
4828;DHT22;2428;48.732;9.148;2024-01-06T14:13:49;5.30;99.90
4828;DHT22;2428;48.732;9.148;2024-01-06T14:16:16;5.30;99.90
4828;DHT22;2428;48.732;9.148;2024-01-06T14:18:46;5.20;99.90
4828;DHT22;2428;48.732;9.148;2024-01-06T14:21:11;5.30;99.90
4828;DHT22;2428;48.732;9.148;2024-01-06T14:23:40;5.20;99.90
4828;DHT22;2428;48.732;9.148;2024-01-06T14:26:08;5.20;99.90
4828;DHT22;2428;48.732;9.148;2024-01-06T14:28:34;5.20;99.90
4828;DHT22;2428;48.732;9.148;2024-01-06T14:30:59;5.30;99.90
4828;DHT22;2428;48.732;9.148;2024-01-06T14:33:25;5.30;99.90
4828;DHT22;2428;48.732;9.148;2024-01-06T14:35:52;5.30;99.90
4828;DHT22;2428;48.732;9.148;2024-01-06T14:38:19;5.30;99.90
4828;DHT22;2428;48.732;9.148;2024-01-06T14:40:44;5.30;99.90
4828;DHT22;2428;48.732;9.148;2024-01-06T14:43:16;5.30;99.90
4828;DHT22;2428;48.732;9.148;2024-01-06T14:45:41;5.20;99.90
4828;DHT22;2428;48.732;9.148;2024-01-06T14:48:07;5.20;99.90
4828;DHT22;2428;48.732;9.148;2024-01-06T14:50:32;5.20;99.90
4828;DHT22;2428;48.732;9.148;2024-01-06T14:52:58;5.20;99.90
4828;DHT22;2428;48.732;9.148;2024-01-06T14:55:23;5.20;99.90
4828;DHT22;2428;48.732;9.148;2024-01-06T14:57:49;5.20;99.90
4828;DHT22;2428;48.732;9.148;2024-01-06T15:00:15;5.20;99.90
4828;DHT22;2428;48.732;9.148;2024-01-06T15:02:40;5.20;99.90
4828;DHT22;2428;48.732;9.148;2024-01-06T15:05:07;5.20;99.90
4828;DHT22;2428;48.732;9.148;2024-01-06T15:07:35;5.20;99.90
4828;DHT22;2428;48.732;9.148;2024-01-06T15:10:01;5.20;99.90
4828;DHT22;2428;48.732;9.148;2024-01-06T15:12:27;5.10;99.90
4828;DHT22;2428;48.732;9.148;2024-01-06T15:14:53;5.10;99.90
4828;DHT22;2428;48.732;9.148;2024-01-06T15:17:19;5.00;99.90
4828;DHT22;2428;48.732;9.148;2024-01-06T15:19:48;5.10;99.90
4828;DHT22;2428;48.732;9.148;2024-01-06T15:22:14;5.10;99.90
4828;DHT22;2428;48.732;9.148;2024-01-06T15:24:40;5.10;99.90
4828;DHT22;2428;48.732;9.148;2024-01-06T15:27:10;5.10;99.90
4828;DHT22;2428;48.732;9.148;2024-01-06T15:29:36;5.20;99.90
4828;DHT22;2428;48.732;9.148;2024-01-06T15:32:02;5.10;99.90
4828;DHT22;2428;48.732;9.148;2024-01-06T15:34:27;5.00;99.90
4828;DHT22;2428;48.732;9.148;2024-01-06T15:36:53;5.00;99.90
4828;DHT22;2428;48.732;9.148;2024-01-06T15:39:19;5.00;99.90
4828;DHT22;2428;48.732;9.148;2024-01-06T15:41:44;5.00;99.90
4828;DHT22;2428;48.732;9.148;2024-01-06T15:44:22;5.00;99.90
4828;DHT22;2428;48.732;9.148;2024-01-06T15:46:47;5.00;99.90
4828;DHT22;2428;48.732;9.148;2024-01-06T15:49:13;5.00;99.90
4828;DHT22;2428;48.732;9.148;2024-01-06T15:51:38;5.00;99.90
4828;DHT22;2428;48.732;9.148;2024-01-06T15:54:04;5.00;99.90
4828;DHT22;2428;48.732;9.148;2024-01-06T15:56:32;5.10;99.90
4828;DHT22;2428;48.732;9.148;2024-01-06T15:58:58;5.00;99.90
4828;DHT22;2428;48.732;9.148;2024-01-06T16:01:23;5.10;99.90
4828;DHT22;2428;48.732;9.148;2024-01-06T16:03:49;5.00;99.90
4828;DHT22;2428;48.732;9.148;2024-01-06T16:06:15;5.00;99.90
4828;DHT22;2428;48.732;9.148;2024-01-06T16:08:40;5.00;99.90
4828;DHT22;2428;48.732;9.148;2024-01-06T16:11:06;5.00;99.90
4828;DHT22;2428;48.732;9.148;2024-01-06T16:13:32;4.90;99.90
4828;DHT22;2428;48.732;9.148;2024-01-06T16:15:57;4.90;99.90
4828;DHT22;2428;48.732;9.148;2024-01-06T16:18:26;4.90;99.90